Pecos National Monument, New Mexico
Current Conditions -  °F | °C
As of 9:53 AM on Wednesday 26 Nov 2014 (Local Time) from KLVS Reporting Station
Clear Clear  
Wind Chill: 46°   Ceiling: Unl
Heat Index: 48°   Visibility: 10mi
Dew Point: 21°   Wind: 5mph
Humidity: 34%   Direction: 230°SW
Pressure: 30.29"   Gusts: NA
Location:  35.582°N, 105.558°W
Report Text: KLVS 261653Z AUTO 23004KT 10SM CLR 09/M06 A3029 RMK AO2 SLP225 T00891061
Loading
Personal Weather Stations






























Interactive Weather Map New forecast layout! Learn more

10-Day Weather Forecast

Advertisements
Track Severe Weather on mobile